Slocomb, Alabama
Current Conditions -  °F | °C
As of 10:58 PM on Monday 26 Jan 2015 (Local Time) from KOZR Reporting Station
Clear Clear  
Wind Chill: 32°   Ceiling: Unl
Heat Index: 37°   Visibility: 10mi
Dew Point: 31°   Wind: 6mph
Humidity: 81%   Direction: 230°SW
Pressure: 30.01"   Gusts: NA
Location:  31.11°N, 85.59°W
Report Text: KOZR 270458Z AUTO 23005KT 10SM CLR 03/00 A3001 RMK AO2 SLP166 T00251005 RVRNO
Loading
Personal Weather Stations






























Interactive Weather Map New forecast layout! Learn more

10-Day Weather Forecast

Advertisements
Track Severe Weather on mobile